Time;durP1;ratioP1;P1;durP2;ratioP2;P2;SDS_P1;SDS_P2;PMS_P1;PMS_P2;Temp;Humidity;BMP_temperature;BMP_pressure;BME280_temperature;BME280_humidity;BME280_pressure;Samples;Min_cycle;Max_cycle;Signal;HPM_P1;HPM_P2
2022/05/04 00:01:43;;;;;;;10.18;5.22;;;9.70;99.30;;;;;;5009742;28;20026;-77
2022/05/04 00:04:09;;;;;;;10.43;6.13;;;9.60;99.90;;;;;;4993000;28;20370;-77
2022/05/04 00:06:34;;;;;;;13.90;5.68;;;9.50;99.90;;;;;;4976344;28;20093;-77
2022/05/04 00:09:00;;;;;;;13.85;5.88;;;9.60;99.90;;;;;;4991551;28;20026;-77
2022/05/04 00:11:25;;;;;;;13.38;5.43;;;9.50;99.90;;;;;;4992481;28;20494;-77
2022/05/04 00:13:53;;;;;;;13.05;6.07;;;9.50;99.90;;;;;;4975008;28;20046;-77
2022/05/04 00:16:19;;;;;;;12.65;5.93;;;9.50;99.90;;;;;;5004955;28;20053;-77
2022/05/04 00:18:44;;;;;;;12.20;6.35;;;9.40;99.90;;;;;;5006462;28;20026;-77
2022/05/04 00:21:10;;;;;;;14.35;5.78;;;9.40;99.90;;;;;;4993251;28;20034;-77
2022/05/04 00:23:35;;;;;;;14.00;6.15;;;9.40;99.90;;;;;;4976450;28;20049;-77
2022/05/04 00:26:01;;;;;;;11.75;5.82;;;9.30;99.90;;;;;;4992840;28;20029;-77
2022/05/04 00:28:27;;;;;;;11.15;6.10;;;9.30;99.90;;;;;;4999891;28;20500;-77
2022/05/04 00:30:52;;;;;;;14.65;5.95;;;9.20;99.90;;;;;;4989509;28;20030;-77
2022/05/04 00:33:18;;;;;;;8.68;5.57;;;9.30;99.90;;;;;;4973043;28;20050;-77
2022/05/04 00:35:44;;;;;;;11.98;5.90;;;9.20;99.90;;;;;;4997085;28;20093;-77
2022/05/04 00:38:09;;;;;;;10.10;5.40;;;9.10;99.90;;;;;;4987596;28;20061;-77
2022/05/04 00:40:35;;;;;;;10.40;6.22;;;9.10;99.90;;;;;;4973418;28;20521;-77
2022/05/04 00:43:00;;;;;;;15.38;6.38;;;9.10;99.90;;;;;;4987086;28;20506;-77
2022/05/04 00:45:26;;;;;;;10.55;5.70;;;9.20;99.90;;;;;;4994308;28;20391;-77
2022/05/04 00:47:51;;;;;;;12.65;6.32;;;9.00;99.90;;;;;;4973849;28;20041;-77
2022/05/04 00:50:17;;;;;;;15.55;6.47;;;9.10;99.90;;;;;;4989930;28;20041;-77
2022/05/04 00:52:43;;;;;;;10.43;6.30;;;9.00;99.90;;;;;;4989259;28;20038;-77
2022/05/04 00:55:09;;;;;;;11.20;5.97;;;8.90;99.90;;;;;;4991289;28;20038;-76
2022/05/04 01:00:19;;;;;;;12.43;6.25;;;8.90;99.90;;;;;;4991178;28;20049;-76
2022/05/04 01:02:45;;;;;;;10.68;6.00;;;8.80;99.90;;;;;;5006444;28;20393;-76
2022/05/04 01:05:11;;;;;;;10.75;6.20;;;8.80;99.90;;;;;;4974562;28;20026;-76
2022/05/04 01:07:41;;;;;;;15.10;6.32;;;8.80;99.90;;;;;;4974224;28;21255;-78
2022/05/04 01:10:07;;;;;;;14.55;6.53;;;8.70;99.90;;;;;;4974179;28;20050;-78
2022/05/04 01:12:33;;;;;;;10.93;6.38;;;8.60;99.90;;;;;;4992763;28;21034;-78
2022/05/04 01:14:59;;;;;;;12.38;6.53;;;8.50;99.90;;;;;;4975757;28;20441;-78
2022/05/04 01:17:26;;;;;;;10.98;5.93;;;8.50;99.90;;;;;;4990899;28;20037;-75
2022/05/04 01:19:52;;;;;;;14.68;6.68;;;8.50;99.90;;;;;;4986837;28;20505;-76
2022/05/04 01:22:18;;;;;;;12.63;6.38;;;8.40;99.90;;;;;;4989318;28;20209;-75
2022/05/04 01:24:43;;;;;;;11.73;5.72;;;8.50;99.90;;;;;;5004169;28;20022;-76
2022/05/04 01:27:11;;;;;;;16.90;6.47;;;8.30;99.90;;;;;;4986216;28;20053;-76
2022/05/04 01:29:37;;;;;;;18.90;6.55;;;8.30;99.90;;;;;;5002046;28;20418;-75
2022/05/04 01:32:03;;;;;;;18.30;6.70;;;8.30;99.90;;;;;;4997650;28;20038;-76
2022/05/04 01:34:28;;;;;;;11.00;6.72;;;8.30;99.90;;;;;;4989062;28;20361;-76
2022/05/04 01:36:54;;;;;;;16.13;7.43;;;8.20;99.90;;;;;;4988881;28;20117;-78
2022/05/04 01:39:19;;;;;;;12.63;5.95;;;8.20;99.90;;;;;;4990156;28;20031;-76
2022/05/04 01:42:03;;;;;;;12.77;6.85;;;8.20;99.90;;;;;;5005749;28;20351;-76
2022/05/04 01:44:32;;;;;;;18.35;6.50;;;8.30;99.90;;;;;;4978848;28;20034;-76
2022/05/04 01:46:59;;;;;;;16.10;6.40;;;8.30;99.90;;;;;;4968833;28;20113;-76
2022/05/04 01:49:24;;;;;;;13.68;8.23;;;8.20;99.90;;;;;;4986633;28;20509;-76
2022/05/04 01:51:50;;;;;;;15.48;6.93;;;8.10;99.90;;;;;;4985262;28;20042;-76
2022/05/04 01:54:16;;;;;;;14.98;7.30;;;8.10;99.90;;;;;;4987795;28;20054;-76
2022/05/04 01:56:41;;;;;;;14.15;6.82;;;8.00;99.90;;;;;;4985582;28;20036;-76
2022/05/04 01:59:07;;;;;;;20.60;7.28;;;8.00;99.90;;;;;;4992540;28;20152;-76
2022/05/04 02:01:32;;;;;;;16.58;7.32;;;7.80;99.90;;;;;;4989858;28;20037;-76
2022/05/04 02:03:58;;;;;;;10.73;6.28;;;7.90;99.90;;;;;;4968230;28;20470;-77
2022/05/04 02:06:24;;;;;;;13.45;6.38;;;7.80;99.90;;;;;;4972803;28;20161;-77
2022/05/04 02:08:50;;;;;;;16.77;6.80;;;7.90;99.90;;;;;;4988463;28;20120;-76
2022/05/04 02:11:16;;;;;;;16.17;6.70;;;7.90;99.90;;;;;;4988915;28;20476;-76
2022/05/04 02:13:41;;;;;;;10.52;6.45;;;7.80;99.90;;;;;;4993355;28;20034;-76
2022/05/04 02:16:07;;;;;;;15.05;6.97;;;7.80;99.90;;;;;;4973808;28;20095;-76
2022/05/04 02:18:33;;;;;;;11.15;6.65;;;7.70;99.90;;;;;;5001941;28;20568;-76
2022/05/04 02:20:58;;;;;;;8.95;6.10;;;7.70;99.90;;;;;;4996682;28;20034;-76
2022/05/04 02:23:24;;;;;;;14.45;6.63;;;7.60;99.90;;;;;;4975101;28;20512;-76
2022/05/04 02:25:50;;;;;;;15.07;7.18;;;7.70;99.90;;;;;;5005258;28;20346;-76
2022/05/04 02:28:15;;;;;;;15.55;6.55;;;7.60;99.90;;;;;;4972235;28;20096;-76
2022/05/04 02:30:41;;;;;;;16.52;7.00;;;7.50;99.90;;;;;;4984586;28;20045;-76
2022/05/04 02:33:06;;;;;;;15.07;6.45;;;7.50;99.90;;;;;;4983874;28;20034;-76
2022/05/04 02:38:16;;;;;;;8.60;5.53;;;7.40;99.90;;;;;;4989256;28;20045;-76
2022/05/04 02:40:41;;;;;;;13.65;6.72;;;7.40;99.90;;;;;;4984804;28;20446;-76
2022/05/04 02:43:07;;;;;;;12.95;6.72;;;7.40;99.90;;;;;;4985224;28;20037;-76
2022/05/04 02:45:34;;;;;;;15.82;6.57;;;7.40;99.90;;;;;;4986594;28;20049;-76
2022/05/04 02:47:59;;;;;;;16.05;6.93;;;7.30;99.90;;;;;;4991995;28;20370;-76
2022/05/04 02:50:25;;;;;;;16.00;7.00;;;7.30;99.90;;;;;;4987238;28;20502;-76
2022/05/04 02:52:50;;;;;;;14.15;6.80;;;7.30;99.90;;;;;;4996049;28;20061;-75
2022/05/04 02:55:16;;;;;;;12.40;6.50;;;7.20;99.90;;;;;;4990141;28;20038;-75
2022/05/04 02:57:42;;;;;;;13.63;7.10;;;7.20;99.90;;;;;;4976709;28;20324;-76
2022/05/04 03:00:08;;;;;;;12.75;7.40;;;7.10;99.90;;;;;;4988929;28;20057;-76
2022/05/04 03:02:33;;;;;;;13.93;6.55;;;7.00;99.90;;;;;;4987485;28;20093;-76
2022/05/04 03:05:08;;;;;;;14.55;7.15;;;7.10;99.90;;;;;;4983161;28;20481;-75
2022/05/04 03:07:34;;;;;;;13.20;6.27;;;7.00;99.90;;;;;;4971411;28;20551;-76
2022/05/04 03:09:59;;;;;;;16.48;7.63;;;7.10;99.90;;;;;;4971014;28;20038;-75
2022/05/04 03:12:25;;;;;;;15.85;7.30;;;7.00;99.90;;;;;;4985700;28;20715;-76
2022/05/04 03:14:51;;;;;;;16.38;7.80;;;7.00;99.90;;;;;;4973403;28;20029;-76
2022/05/04 03:17:17;;;;;;;16.15;7.50;;;7.00;99.90;;;;;;4984853;28;20077;-76
2022/05/04 03:19:42;;;;;;;14.73;6.90;;;7.00;99.90;;;;;;4986530;28;20552;-76
2022/05/04 03:22:08;;;;;;;16.60;8.07;;;7.00;99.90;;;;;;4972669;28;20057;-76
2022/05/04 03:24:33;;;;;;;16.75;8.43;;;6.90;99.90;;;;;;4969864;28;20034;-76
2022/05/04 03:26:59;;;;;;;13.45;7.53;;;6.90;99.90;;;;;;4971565;28;20037;-76
2022/05/04 03:29:24;;;;;;;18.25;7.57;;;6.90;99.90;;;;;;4970959;28;20034;-76
2022/05/04 03:31:50;;;;;;;12.77;6.90;;;6.90;99.90;;;;;;4983936;28;20026;-76
2022/05/04 03:34:15;;;;;;;25.17;7.72;;;6.80;99.90;;;;;;4990110;28;20030;-76
2022/05/04 03:36:41;;;;;;;18.05;8.48;;;6.80;99.90;;;;;;4988349;28;20030;-76
2022/05/04 03:39:07;;;;;;;19.33;7.63;;;6.70;99.90;;;;;;4974895;28;20026;-75
2022/05/04 03:41:33;;;;;;;20.02;7.82;;;6.60;99.90;;;;;;4986070;28;20049;-76
2022/05/04 03:43:58;;;;;;;18.20;7.25;;;6.60;99.90;;;;;;4987267;28;20038;-76
2022/05/04 03:46:25;;;;;;;14.65;7.10;;;6.60;99.90;;;;;;4980788;28;20544;-76
2022/05/04 03:48:52;;;;;;;14.68;6.95;;;6.50;99.90;;;;;;4990495;28;20088;-77
2022/05/04 03:51:20;;;;;;;18.25;7.80;;;6.60;99.90;;;;;;4985943;28;20041;-77
2022/05/04 03:53:47;;;;;;;17.67;8.05;;;6.50;99.90;;;;;;4995811;28;20031;-77
2022/05/04 03:56:12;;;;;;;16.92;8.50;;;6.60;99.90;;;;;;4985422;28;20038;-77
2022/05/04 03:58:38;;;;;;;20.08;7.55;;;6.50;99.90;;;;;;4983237;28;20030;-76
2022/05/04 04:01:06;;;;;;;18.23;7.63;;;6.40;99.90;;;;;;4991235;28;20034;-77
2022/05/04 04:03:32;;;;;;;18.38;8.18;;;6.40;99.90;;;;;;4994959;28;20528;-77
2022/05/04 04:05:58;;;;;;;14.07;7.18;;;6.50;99.90;;;;;;4995515;28;20660;-77
2022/05/04 04:08:24;;;;;;;14.35;7.32;;;6.40;99.90;;;;;;4994752;28;20054;-77
2022/05/04 04:10:49;;;;;;;15.70;7.70;;;6.40;99.90;;;;;;4987873;28;20030;-77
2022/05/04 04:13:15;;;;;;;13.73;7.70;;;6.40;99.90;;;;;;4983530;28;20030;-77
2022/05/04 04:15:41;;;;;;;17.20;8.10;;;6.50;99.90;;;;;;4980710;28;20473;-77
2022/05/04 04:18:07;;;;;;;20.45;8.65;;;6.50;99.90;;;;;;4979244;28;20077;-77
2022/05/04 04:23:16;;;;;;;18.90;7.93;;;6.50;99.90;;;;;;4990587;28;20056;-77
2022/05/04 04:25:42;;;;;;;16.90;8.82;;;6.50;99.90;;;;;;4989646;28;20493;-77
2022/05/04 04:28:09;;;;;;;17.50;8.07;;;6.50;99.90;;;;;;4973733;28;20109;-77
2022/05/04 04:30:36;;;;;;;19.95;8.45;;;6.50;99.90;;;;;;5005350;28;20029;-77
2022/05/04 04:33:02;;;;;;;13.48;7.20;;;6.60;99.90;;;;;;4991999;28;20054;-77
2022/05/04 04:35:28;;;;;;;20.02;8.52;;;6.50;99.90;;;;;;4987545;28;20145;-77
2022/05/04 04:37:53;;;;;;;21.25;9.43;;;6.50;99.90;;;;;;4977536;28;20034;-77
2022/05/04 04:40:19;;;;;;;20.63;8.25;;;6.50;99.90;;;;;;5004024;28;20046;-76
2022/05/04 04:42:44;;;;;;;25.35;9.52;;;6.60;99.90;;;;;;4995743;28;20192;-77
2022/05/04 04:45:10;;;;;;;21.17;7.72;;;6.70;99.90;;;;;;4989551;28;20051;-77
2022/05/04 04:47:35;;;;;;;20.75;8.45;;;6.70;99.90;;;;;;4989083;28;20420;-77
2022/05/04 04:50:01;;;;;;;20.20;8.82;;;6.70;99.90;;;;;;4976121;28;20030;-77
2022/05/04 04:52:27;;;;;;;18.88;8.18;;;6.80;99.90;;;;;;5007628;28;20147;-77
2022/05/04 04:54:52;;;;;;;23.70;8.70;;;6.90;99.90;;;;;;5004378;28;20343;-77
2022/05/04 04:57:18;;;;;;;20.95;9.02;;;6.90;99.90;;;;;;4993828;28;20039;-76
2022/05/04 04:59:43;;;;;;;23.77;8.95;;;6.90;99.90;;;;;;4972793;28;20128;-77
2022/05/04 05:02:09;;;;;;;16.48;7.72;;;7.10;99.90;;;;;;4989896;28;20093;-78
2022/05/04 05:04:35;;;;;;;27.48;8.77;;;7.20;99.90;;;;;;4992779;28;20026;-77
2022/05/04 05:07:00;;;;;;;16.58;7.95;;;7.30;99.90;;;;;;4976401;28;20549;-78
2022/05/04 05:09:26;;;;;;;16.83;7.78;;;7.30;99.90;;;;;;4991183;28;20173;-77
2022/05/04 05:11:51;;;;;;;19.90;8.52;;;7.40;99.90;;;;;;4990060;28;20026;-77
2022/05/04 05:17:02;;;;;;;20.38;7.93;;;7.60;99.90;;;;;;4991065;28;20048;-78
2022/05/04 05:19:27;;;;;;;20.10;8.43;;;7.80;99.90;;;;;;4988118;28;20506;-78
2022/05/04 05:21:53;;;;;;;17.05;8.70;;;7.80;99.90;;;;;;4989886;28;20562;-77
2022/05/04 05:24:19;;;;;;;14.88;8.43;;;7.80;99.90;;;;;;4992550;28;20045;-78
2022/05/04 05:26:44;;;;;;;15.77;7.70;;;7.90;99.90;;;;;;4987417;28;20096;-78
2022/05/04 05:29:10;;;;;;;16.33;7.90;;;8.00;99.90;;;;;;4970155;28;20470;-77
2022/05/04 05:31:35;;;;;;;21.35;7.88;;;8.20;99.90;;;;;;4989256;28;20093;-77
2022/05/04 05:34:01;;;;;;;22.00;8.07;;;8.30;99.90;;;;;;4995896;28;20030;-77
2022/05/04 05:36:26;;;;;;;14.88;7.65;;;8.40;99.90;;;;;;4997392;28;20039;-77
2022/05/04 05:38:52;;;;;;;15.07;7.47;;;8.50;99.90;;;;;;4986217;28;20026;-77
2022/05/04 05:41:17;;;;;;;16.55;7.70;;;8.70;99.90;;;;;;4973187;28;20062;-78
2022/05/04 05:43:43;;;;;;;17.95;8.65;;;8.80;99.90;;;;;;4972397;28;20041;-77
2022/05/04 05:46:08;;;;;;;18.15;7.72;;;8.90;99.90;;;;;;4991752;28;20030;-78
2022/05/04 05:48:34;;;;;;;17.67;7.95;;;9.10;99.90;;;;;;4981869;28;20038;-77
2022/05/04 05:51:05;;;;;;;20.40;8.05;;;9.30;99.90;;;;;;4974883;28;20034;-78
2022/05/04 05:53:31;;;;;;;16.00;7.53;;;9.40;99.90;;;;;;4987078;28;20317;-77
2022/05/04 05:55:57;;;;;;;17.08;8.15;;;9.50;99.90;;;;;;4990497;28;20088;-78
2022/05/04 05:58:22;;;;;;;20.48;8.07;;;9.70;99.90;;;;;;4974704;28;20400;-77
2022/05/04 06:00:49;;;;;;;15.93;8.05;;;9.80;99.90;;;;;;5005521;28;20035;-77
2022/05/04 06:03:15;;;;;;;20.58;8.70;;;9.90;99.90;;;;;;4975440;28;20036;-77
2022/05/04 06:05:41;;;;;;;21.42;8.30;;;10.10;99.90;;;;;;4974849;28;20021;-77
2022/05/04 06:08:09;;;;;;;20.85;8.07;;;10.30;99.90;;;;;;4988268;28;20089;-77
2022/05/04 06:10:35;;;;;;;15.10;8.30;;;10.40;99.90;;;;;;5004036;28;20151;-77
2022/05/04 06:13:01;;;;;;;16.55;8.85;;;10.50;99.90;;;;;;4990086;28;20102;-78
2022/05/04 06:15:26;;;;;;;17.88;8.88;;;10.70;99.90;;;;;;4986209;28;20133;-77
2022/05/04 06:17:52;;;;;;;18.67;8.90;;;10.90;99.90;;;;;;4996250;28;20038;-77
2022/05/04 06:20:17;;;;;;;16.92;8.20;;;11.10;99.90;;;;;;4984886;28;20027;-77
2022/05/04 06:22:43;;;;;;;18.98;8.43;;;11.20;99.90;;;;;;4988648;28;20155;-77
2022/05/04 06:25:08;;;;;;;20.17;8.63;;;11.40;99.90;;;;;;4987131;28;20158;-78
2022/05/04 06:27:34;;;;;;;13.68;6.85;;;11.50;99.90;;;;;;4973868;28;20026;-78
2022/05/04 06:35:28;;;;;;;18.85;8.30;;;12.00;99.90;;;;;;4988349;28;20474;-78
2022/05/04 06:37:54;;;;;;;22.98;8.23;;;12.20;99.90;;;;;;4989992;28;20026;-78
2022/05/04 06:40:20;;;;;;;19.65;8.40;;;12.30;99.90;;;;;;4984063;28;20026;-78
2022/05/04 06:42:46;;;;;;;21.02;8.85;;;12.50;99.90;;;;;;4974385;28;20737;-78
2022/05/04 06:45:12;;;;;;;23.55;9.15;;;12.70;99.90;;;;;;4987703;28;20030;-78
2022/05/04 06:47:37;;;;;;;16.90;7.57;;;12.80;99.90;;;;;;4988645;28;20049;-78
2022/05/04 06:50:06;;;;;;;16.77;8.55;;;12.90;99.90;;;;;;4993079;28;20533;-78
2022/05/04 06:52:32;;;;;;;13.23;5.55;;;13.10;99.90;;;;;;4986844;28;20576;-78
2022/05/04 06:54:57;;;;;;;17.48;9.77;;;13.30;99.90;;;;;;4990764;28;20132;-78
2022/05/04 06:57:23;;;;;;;18.38;8.32;;;13.40;99.90;;;;;;4986630;28;20465;-78
2022/05/04 06:59:49;;;;;;;19.10;9.13;;;13.50;99.90;;;;;;4989088;28;20033;-78
2022/05/04 07:02:14;;;;;;;15.25;7.88;;;13.80;99.90;;;;;;4986419;28;20031;-78
2022/05/04 07:04:40;;;;;;;15.25;7.90;;;13.90;99.90;;;;;;4973832;28;20022;-78
2022/05/04 07:07:06;;;;;;;19.20;9.25;;;13.90;99.90;;;;;;4979782;28;20057;-78
2022/05/04 07:09:33;;;;;;;18.80;8.48;;;14.10;99.90;;;;;;4977381;28;20054;-78
2022/05/04 07:11:59;;;;;;;23.20;9.35;;;14.30;99.90;;;;;;4986624;28;20165;-78
2022/05/04 07:14:24;;;;;;;16.40;9.32;;;14.40;99.90;;;;;;4997156;28;20113;-78
2022/05/04 07:16:50;;;;;;;19.33;9.52;;;14.60;99.90;;;;;;4987051;28;20033;-78
2022/05/04 07:19:16;;;;;;;23.08;9.60;;;14.70;99.90;;;;;;4984548;28;20133;-78
2022/05/04 07:21:42;;;;;;;13.63;8.85;;;14.90;99.90;;;;;;4988291;28;20148;-78
2022/05/04 07:24:08;;;;;;;17.63;8.85;;;15.10;99.90;;;;;;4978533;28;20034;-78
2022/05/04 07:26:33;;;;;;;19.95;9.75;;;15.10;99.90;;;;;;4987549;28;20386;-78
2022/05/04 07:28:59;;;;;;;20.55;9.13;;;15.20;99.90;;;;;;4989321;28;20030;-78
2022/05/04 07:31:24;;;;;;;17.60;9.75;;;15.50;99.90;;;;;;4970519;28;20065;-78
2022/05/04 07:33:50;;;;;;;19.80;9.27;;;15.70;99.90;;;;;;4972192;28;20030;-78
2022/05/04 07:36:15;;;;;;;16.98;9.77;;;15.70;99.90;;;;;;4975176;28;20278;-78
2022/05/04 07:38:41;;;;;;;13.25;7.78;;;15.70;99.90;;;;;;4970008;28;20030;-78
2022/05/04 07:43:52;;;;;;;21.13;10.00;;;15.90;99.90;;;;;;4987697;28;20532;-78
2022/05/04 07:46:17;;;;;;;17.85;9.05;;;16.20;99.90;;;;;;4988212;28;20537;-77
2022/05/04 07:48:43;;;;;;;17.90;10.63;;;16.40;99.90;;;;;;4989504;28;20236;-78
2022/05/04 07:51:08;;;;;;;20.08;10.27;;;16.60;99.90;;;;;;4968770;28;20038;-78
2022/05/04 07:53:34;;;;;;;16.70;8.63;;;16.90;99.90;;;;;;4962484;28;20046;-78
2022/05/04 07:56:00;;;;;;;16.00;8.55;;;17.10;99.90;;;;;;4976236;28;20026;-78
2022/05/04 07:58:26;;;;;;;18.58;9.35;;;17.50;99.80;;;;;;4990398;28;20030;-78
2022/05/04 08:06:20;;;;;;;23.40;10.85;;;18.40;97.90;;;;;;4995314;28;20092;-78
2022/05/04 08:08:45;;;;;;;18.20;10.55;;;19.00;95.60;;;;;;4992005;28;20477;-78
2022/05/04 08:11:11;;;;;;;19.58;9.98;;;19.20;93.60;;;;;;4974790;28;20026;-78
2022/05/04 08:13:36;;;;;;;16.85;9.43;;;19.30;93.60;;;;;;4999757;28;20038;-78
2022/05/04 08:16:02;;;;;;;12.50;8.48;;;19.30;92.50;;;;;;4989350;28;20116;-78
2022/05/04 08:18:27;;;;;;;16.35;9.10;;;19.20;93.10;;;;;;4991505;28;20026;-78
2022/05/04 08:20:53;;;;;;;20.42;10.73;;;19.20;93.40;;;;;;4991231;28;20061;-78
2022/05/04 08:23:18;;;;;;;17.15;10.15;;;19.30;93.10;;;;;;4995427;28;20105;-78
2022/05/04 08:25:45;;;;;;;16.23;10.45;;;19.40;91.80;;;;;;4996880;28;20027;-78
2022/05/04 08:28:12;;;;;;;16.63;10.57;;;19.50;90.60;;;;;;4992372;28;20104;-78
2022/05/04 08:30:39;;;;;;;22.13;10.07;;;19.50;90.10;;;;;;4994798;28;20440;-78
2022/05/04 08:33:05;;;;;;;16.67;9.57;;;19.50;90.60;;;;;;4975629;28;20058;-79
2022/05/04 08:35:31;;;;;;;19.33;10.25;;;19.70;90.50;;;;;;4985477;28;20113;-79
2022/05/04 08:37:56;;;;;;;15.70;8.63;;;19.80;88.90;;;;;;4974158;28;20678;-79
2022/05/04 08:40:22;;;;;;;19.75;10.13;;;19.90;88.60;;;;;;4998677;28;20031;-78
2022/05/04 08:42:47;;;;;;;16.85;10.13;;;20.10;84.90;;;;;;4983478;28;20026;-79
2022/05/04 08:45:14;;;;;;;20.88;10.60;;;20.10;84.90;;;;;;4989420;28;20038;-79
2022/05/04 08:47:40;;;;;;;11.35;7.40;;;20.10;85.10;;;;;;4989727;28;20034;-78
2022/05/04 08:50:13;;;;;;;13.23;8.38;;;20.20;85.30;;;;;;4979838;28;20030;-79
2022/05/04 08:52:40;;;;;;;18.98;9.50;;;20.40;85.60;;;;;;4988391;28;22420;-78
2022/05/04 08:55:06;;;;;;;22.70;10.70;;;20.40;85.10;;;;;;4999126;28;20037;-78
2022/05/04 08:57:32;;;;;;;18.70;10.68;;;20.60;82.10;;;;;;4979320;28;20030;-79
2022/05/04 08:59:57;;;;;;;21.17;10.10;;;20.60;82.50;;;;;;4976913;28;20038;-79
2022/05/04 09:02:23;;;;;;;27.13;10.98;;;20.80;82.00;;;;;;4989412;28;20034;-78
2022/05/04 09:04:48;;;;;;;19.15;10.43;;;20.80;81.80;;;;;;4990219;28;20030;-78
2022/05/04 09:07:21;;;;;;;15.70;8.15;;;21.00;80.10;;;;;;4978347;28;20026;-79
2022/05/04 09:09:47;;;;;;;28.98;10.95;;;21.10;78.70;;;;;;4991654;28;20386;-79
2022/05/04 09:12:15;;;;;;;19.52;9.07;;;21.00;79.40;;;;;;4991780;28;20029;-79
2022/05/04 09:14:41;;;;;;;19.48;9.20;;;20.90;80.00;;;;;;4993259;28;20040;-79
2022/05/04 09:17:10;;;;;;;20.77;9.85;;;21.00;80.10;;;;;;4991072;28;20513;-79
2022/05/04 09:19:36;;;;;;;16.98;10.85;;;21.20;79.60;;;;;;4991941;28;20037;-79
2022/05/04 09:22:01;;;;;;;15.13;8.38;;;21.50;77.80;;;;;;4987028;28;20026;-79
2022/05/04 09:24:28;;;;;;;19.65;11.32;;;21.50;78.20;;;;;;4993986;28;20168;-79
2022/05/04 09:26:55;;;;;;;13.65;8.60;;;21.70;75.50;;;;;;4990831;28;20129;-79
2022/05/04 09:29:22;;;;;;;20.77;11.35;;;21.80;76.00;;;;;;4989952;28;20568;-79
2022/05/04 09:31:47;;;;;;;16.02;9.43;;;21.90;74.10;;;;;;4994314;28;20489;-79
2022/05/04 09:34:13;;;;;;;15.45;8.23;;;21.90;75.90;;;;;;4987824;28;20046;-79
2022/05/04 09:45:05;;;;;;;14.80;9.30;;;22.40;71.40;;;;;;4980357;28;20056;-80
2022/05/04 09:47:31;;;;;;;23.97;9.67;;;22.40;71.70;;;;;;4979424;28;20054;-80
2022/05/04 09:50:01;;;;;;;16.15;7.15;;;22.50;72.60;;;;;;4974939;28;20472;-80
2022/05/04 09:52:27;;;;;;;14.70;8.07;;;22.60;71.90;;;;;;4976654;28;20391;-80
2022/05/04 09:54:53;;;;;;;15.32;9.65;;;22.70;71.40;;;;;;4991185;28;20084;-80
2022/05/04 09:57:20;;;;;;;14.13;10.45;;;22.90;71.70;;;;;;4978196;28;20129;-80
2022/05/04 09:59:45;;;;;;;15.40;8.50;;;23.20;72.20;;;;;;4993576;28;20107;-80
2022/05/04 10:02:13;;;;;;;20.15;10.48;;;23.40;69.90;;;;;;4990505;28;20034;-80
2022/05/04 10:04:38;;;;;;;20.52;12.68;;;23.70;67.90;;;;;;4981516;28;20034;-79
2022/05/04 10:07:04;;;;;;;23.35;13.23;;;23.90;65.80;;;;;;4963855;28;20027;-80
2022/05/04 10:09:30;;;;;;;18.05;12.82;;;24.00;65.10;;;;;;4989747;28;20042;-80
2022/05/04 10:11:57;;;;;;;20.85;12.80;;;23.80;65.50;;;;;;4973508;28;20506;-80
2022/05/04 10:14:23;;;;;;;16.98;10.60;;;24.00;64.70;;;;;;4974357;28;20092;-80
2022/05/04 10:17:16;;;;;;;19.02;10.48;;;23.90;65.00;;;;;;4986304;28;20038;-80
2022/05/04 10:20:03;;;;;;;16.00;8.73;;;23.90;65.10;;;;;;4994371;28;20108;-80
2022/05/04 10:22:31;;;;;;;21.30;12.35;;;23.90;65.40;;;;;;4987409;28;20033;-79
2022/05/04 10:24:58;;;;;;;16.77;9.73;;;24.10;62.30;;;;;;4976602;28;20038;-80
2022/05/04 10:27:27;;;;;;;21.63;12.65;;;24.20;63.90;;;;;;4985818;28;20070;-80
2022/05/04 10:30:46;;;;;;;21.88;13.32;;;24.50;64.30;;;;;;4976666;28;20117;-80
2022/05/04 10:32:48;;;;;;;19.33;11.70;;;25.10;59.00;;;;;;4985113;28;20087;-80
2022/05/04 10:35:27;;;;;;;25.33;14.30;;;25.10;60.40;;;;;;4989505;28;20407;-80
2022/05/04 10:37:59;;;;;;;18.10;13.15;;;25.20;59.20;;;;;;4989147;28;20041;-80
2022/05/04 10:40:34;;;;;;;23.85;13.85;;;25.20;58.70;;;;;;4994558;28;20078;-80
2022/05/04 10:43:02;;;;;;;;;;;25.10;58.60;;;;;;4980871;28;20776;-81
2022/05/04 10:45:34;;;;;;;20.58;14.48;;;25.30;58.30;;;;;;4990506;28;19963;-80
2022/05/04 10:48:18;;;;;;;22.65;15.73;;;25.40;58.00;;;;;;4991577;28;20398;-80
2022/05/04 10:50:51;;;;;;;17.52;12.13;;;25.10;56.40;;;;;;4999319;28;20046;-80
2022/05/04 10:53:19;;;;;;;21.27;14.00;;;25.00;57.90;;;;;;4989990;28;20043;-80
2022/05/04 10:55:56;;;;;;;25.98;14.30;;;24.90;57.70;;;;;;4990578;28;20501;-80
2022/05/04 10:58:46;;;;;;;16.95;11.88;;;24.90;57.70;;;;;;4963392;28;20038;-80
2022/05/04 11:01:23;;;;;;;22.05;13.77;;;24.70;57.80;;;;;;4996554;28;20596;-80
2022/05/04 11:04:11;;;;;;;19.67;11.90;;;24.80;56.30;;;;;;4998491;28;20031;-80
2022/05/04 11:07:03;;;;;;;19.83;13.05;;;24.50;56.40;;;;;;4989242;28;20300;-80
2022/05/04 11:09:31;;;;;;;19.67;11.68;;;24.50;56.10;;;;;;4980949;28;20038;-80
2022/05/04 11:11:58;;;;;;;21.55;15.35;;;24.60;56.30;;;;;;4971895;28;20073;-81
2022/05/04 11:14:25;;;;;;;16.90;11.50;;;24.70;56.60;;;;;;4988854;28;20045;-80
2022/05/04 11:16:52;;;;;;;23.33;14.95;;;24.70;56.20;;;;;;4970386;28;20061;-80
2022/05/04 11:19:18;;;;;;;25.23;15.70;;;24.80;56.30;;;;;;4988376;28;20034;-80
2022/05/04 11:21:43;;;;;;;16.60;10.38;;;24.90;56.10;;;;;;4991770;28;20022;-80
2022/05/04 11:24:13;;;;;;;18.23;13.88;;;25.00;56.50;;;;;;4982350;28;20489;-81
2022/05/04 11:26:42;;;;;;;19.67;12.13;;;25.20;55.00;;;;;;4973472;28;20436;-80
2022/05/04 11:29:17;;;;;;;20.15;13.88;;;25.20;55.50;;;;;;4956859;28;20054;-80
2022/05/04 11:31:44;;;;;;;17.00;11.00;;;25.40;55.20;;;;;;4997958;28;20030;-80
2022/05/04 11:34:09;;;;;;;15.68;9.63;;;25.30;55.10;;;;;;4988299;28;20113;-80
2022/05/04 11:36:35;;;;;;;22.83;13.77;;;25.30;55.50;;;;;;4990350;28;20137;-80
2022/05/04 11:39:01;;;;;;;21.15;14.73;;;25.30;55.30;;;;;;4986136;28;20401;-80
2022/05/04 11:41:28;;;;;;;22.83;13.50;;;25.20;54.10;;;;;;4959930;28;20041;-80
2022/05/04 11:43:54;;;;;;;17.00;10.57;;;25.10;54.30;;;;;;4984798;28;20034;-80
2022/05/04 11:46:19;;;;;;;17.75;12.88;;;25.10;54.40;;;;;;4994148;28;20343;-80
2022/05/04 11:48:47;;;;;;;18.13;11.68;;;25.10;53.90;;;;;;4990322;28;20037;-80
2022/05/04 11:51:14;;;;;;;21.13;11.98;;;25.00;54.40;;;;;;4985876;28;20038;-80
2022/05/04 11:53:40;;;;;;;16.08;9.98;;;25.20;55.10;;;;;;4987283;28;20037;-80
2022/05/04 11:56:07;;;;;;;12.10;7.57;;;25.30;55.10;;;;;;4970564;28;20038;-80
2022/05/04 11:58:34;;;;;;;18.95;11.73;;;25.50;54.70;;;;;;4959327;28;20510;-80
2022/05/04 12:01:00;;;;;;;21.08;13.52;;;25.40;53.40;;;;;;4986118;28;20390;-80
2022/05/04 12:03:26;;;;;;;21.05;13.98;;;25.50;53.40;;;;;;4990369;28;20401;-80
2022/05/04 12:05:53;;;;;;;18.42;13.65;;;25.40;52.20;;;;;;4975691;28;20259;-80
2022/05/04 12:08:19;;;;;;;22.95;13.82;;;25.30;51.50;;;;;;4965883;28;20049;-80
2022/05/04 12:10:46;;;;;;;21.92;13.40;;;25.30;51.50;;;;;;4987490;28;20061;-80
2022/05/04 12:13:13;;;;;;;17.23;12.63;;;25.20;51.90;;;;;;4955094;28;20046;-80
2022/05/04 12:15:39;;;;;;;18.80;11.75;;;25.30;53.10;;;;;;4988273;28;20064;-80
2022/05/04 12:18:05;;;;;;;23.17;14.93;;;25.30;52.90;;;;;;4983105;28;20049;-79
2022/05/04 12:20:34;;;;;;;14.98;10.60;;;25.20;51.70;;;;;;4994189;28;20161;-80
2022/05/04 12:23:02;;;;;;;18.42;13.13;;;25.10;52.20;;;;;;4957274;28;20031;-80
2022/05/04 12:25:28;;;;;;;17.65;13.82;;;25.10;52.30;;;;;;4976440;28;20239;-80
2022/05/04 12:27:55;;;;;;;14.68;10.73;;;25.30;52.50;;;;;;4976757;28;20038;-80
2022/05/04 12:33:09;;;;;;;13.90;9.98;;;25.50;53.30;;;;;;4991769;28;20041;-80
2022/05/04 12:35:38;;;;;;;16.20;10.32;;;25.80;52.80;;;;;;4982758;28;20030;-79
2022/05/04 12:38:04;;;;;;;17.83;10.18;;;25.90;52.50;;;;;;4979186;28;20050;-79
2022/05/04 12:40:31;;;;;;;10.35;7.50;;;26.10;53.50;;;;;;4975415;28;20022;-79
2022/05/04 12:43:01;;;;;;;15.55;7.45;;;26.50;53.20;;;;;;4980402;28;20026;-79
2022/05/04 12:45:27;;;;;;;7.35;6.03;;;26.70;53.10;;;;;;4979187;28;20113;-79
2022/05/04 12:47:56;;;;;;;9.13;5.80;;;26.90;51.80;;;;;;4993869;28;20153;-78
2022/05/04 12:50:26;;;;;;;10.00;5.68;;;27.10;51.30;;;;;;4988036;28;20034;-78
2022/05/04 12:52:52;;;;;;;14.20;7.88;;;27.50;50.30;;;;;;4982113;28;20512;-78
2022/05/04 12:55:17;;;;;;;13.52;8.75;;;27.10;49.50;;;;;;4988994;28;20018;-78
2022/05/04 12:57:43;;;;;;;11.07;8.13;;;27.10;49.20;;;;;;4990615;28;20026;-78
2022/05/04 13:00:12;;;;;;;11.57;7.03;;;27.00;48.90;;;;;;4993122;28;20477;-78
2022/05/04 13:02:42;;;;;;;9.63;5.28;;;27.20;48.40;;;;;;4990839;28;20057;-78
2022/05/04 13:05:11;;;;;;;10.77;5.47;;;27.30;49.40;;;;;;4968992;28;20045;-78
2022/05/04 13:07:37;;;;;;;8.60;6.05;;;27.70;48.70;;;;;;4977752;28;20041;-78
2022/05/04 13:10:05;;;;;;;8.77;5.35;;;27.80;48.30;;;;;;4994754;28;20046;-77
2022/05/04 13:12:31;;;;;;;10.07;4.25;;;27.90;48.00;;;;;;4990933;28;20090;-78
2022/05/04 13:14:56;;;;;;;6.68;4.68;;;28.20;47.20;;;;;;4977702;28;20069;-77